Terminal Aerodrome Forecast
Issued by NWS

Home | Current Version | Previous Version | Text Only | Print | Product List | Glossary On
Versions: 1 2 3 4 5 6 7 8 9 10 11 12 13 14 15 16
454
FTUS41 KBTV 270540
TAFSLK
TAF
KSLK 270540Z 2706/2806 00000KT 1SM BR VV001
      TEMPO 2706/2710 1/2SM FG VV002
     FM271000 00000KT 1/4SM FG VV001
     FM271300 19006KT P6SM SCT250
     FM271800 17012G20KT P6SM SCT250
     FM280000 18009KT P6SM SCT250=

USA.gov is the U.S. government's official web portal to all federal, state and local government web resources and services.